Time;durP1;ratioP1;P1;durP2;ratioP2;P2;SDS_P1;SDS_P2;PMS_P1;PMS_P2;Temp;Humidity;BMP_temperature;BMP_pressure;BME280_temperature;BME280_humidity;BME280_pressure;Samples;Min_cycle;Max_cycle;Signal;HPM_P1;HPM_P2
2021/07/26 00:02:13;;;;;;;45.83;37.58;;;;;;;19.21;100.00;100257.56;3554651;40;20102;-41
2021/07/26 00:04:40;;;;;;;43.05;35.08;;;;;;;19.20;100.00;100263.66;3555156;40;20030;-42
2021/07/26 00:07:07;;;;;;;38.92;33.88;;;;;;;19.24;100.00;100260.13;3554453;40;20085;-42
2021/07/26 00:09:35;;;;;;;38.92;33.85;;;;;;;19.35;100.00;100267.72;3554646;40;20332;-44
2021/07/26 00:12:04;;;;;;;40.90;32.60;;;;;;;19.27;100.00;100273.06;3554447;40;20058;-42
2021/07/26 00:14:32;;;;;;;37.25;31.92;;;;;;;19.43;100.00;100268.47;3554466;40;20046;-43
2021/07/26 00:16:59;;;;;;;34.17;30.52;;;;;;;19.48;100.00;100271.81;3554430;40;20041;-42
2021/07/26 00:19:27;;;;;;;33.95;30.45;;;;;;;19.70;100.00;100274.94;3550883;40;20093;-42
2021/07/26 00:21:54;;;;;;;38.40;32.03;;;;;;;19.56;100.00;100274.31;3554465;40;20093;-42
2021/07/26 00:24:20;;;;;;;40.78;33.88;;;;;;;19.32;100.00;100267.78;3554348;40;20077;-44
2021/07/26 00:26:47;;;;;;;38.83;33.88;;;;;;;19.27;100.00;100265.28;3554446;40;20053;-46
2021/07/26 00:29:14;;;;;;;37.05;31.95;;;;;;;19.27;100.00;100267.00;3554025;40;20057;-42
2021/07/26 00:31:41;;;;;;;42.30;35.58;;;;;;;19.13;100.00;100263.78;3554016;40;20082;-45
2021/07/26 00:34:26;;;;;;;42.35;36.58;;;;;;;19.21;100.00;100262.75;3554273;40;20061;-43
2021/07/26 00:36:58;;;;;;;44.58;37.03;;;;;;;19.03;100.00;100257.88;3554291;40;20052;-42
2021/07/26 00:39:28;;;;;;;46.83;38.70;;;;;;;18.95;100.00;100255.41;3550360;40;20078;-43
2021/07/26 00:41:55;;;;;;;56.15;40.53;;;;;;;18.98;100.00;100263.13;3554317;40;20106;-42
2021/07/26 00:44:24;;;;;;;46.95;37.80;;;;;;;19.02;100.00;100262.22;3551631;40;20053;-43
2021/07/26 00:46:53;;;;;;;44.20;36.08;;;;;;;19.05;100.00;100269.09;3554474;40;20050;-44
2021/07/26 00:49:21;;;;;;;43.65;36.22;;;;;;;19.01;100.00;100270.88;3554031;40;20110;-42
2021/07/26 00:51:51;;;;;;;39.58;34.78;;;;;;;19.37;100.00;100268.56;3554285;40;20082;-42
2021/07/26 00:54:24;;;;;;;45.20;36.90;;;;;;;19.11;100.00;100265.56;3554088;40;20352;-42
2021/07/26 00:56:53;;;;;;;47.08;38.08;;;;;;;18.93;100.00;100261.50;3554350;40;20093;-42
2021/07/26 00:59:20;;;;;;;54.45;40.75;;;;;;;18.85;100.00;100264.19;3554124;40;20115;-44
2021/07/26 01:01:47;;;;;;;51.05;41.97;;;;;;;18.85;100.00;100263.34;3558313;40;20388;-44
2021/07/26 01:04:14;;;;;;;53.92;44.00;;;;;;;18.82;100.00;100259.06;3559804;40;20049;-45
2021/07/26 01:06:42;;;;;;;52.40;42.28;;;;;;;18.87;100.00;100259.00;3555744;40;20070;-42
2021/07/26 01:09:09;;;;;;;53.03;44.95;;;;;;;18.88;100.00;100261.56;3554053;40;20057;-43
2021/07/26 01:11:37;;;;;;;49.60;40.03;;;;;;;18.97;100.00;100263.16;3554335;40;20050;-43
2021/07/26 01:14:04;;;;;;;54.65;44.92;;;;;;;18.94;100.00;100264.06;3554080;40;20065;-42
2021/07/26 01:16:31;;;;;;;55.88;44.47;;;;;;;18.87;100.00;100259.88;3554152;40;20392;-42
2021/07/26 01:19:01;;;;;;;57.85;43.72;;;;;;;18.85;100.00;100253.81;3554016;40;20085;-42
2021/07/26 01:21:30;;;;;;;54.97;44.70;;;;;;;18.86;100.00;100257.28;3554037;40;20104;-42
2021/07/26 01:23:59;;;;;;;57.80;45.40;;;;;;;18.86;100.00;100257.28;3553998;40;20089;-45
2021/07/26 01:26:27;;;;;;;61.35;46.58;;;;;;;18.90;100.00;100258.94;3550479;40;20063;-43
2021/07/26 01:28:57;;;;;;;63.45;48.88;;;;;;;18.85;100.00;100251.22;3554145;40;20352;-42
2021/07/26 01:31:25;;;;;;;59.95;46.40;;;;;;;18.91;100.00;100251.16;3553849;40;20085;-43
2021/07/26 01:33:52;;;;;;;58.90;46.13;;;;;;;19.00;100.00;100253.59;3554087;40;20042;-46
2021/07/26 01:36:21;;;;;;;63.03;47.38;;;;;;;18.93;100.00;100254.56;3554181;40;20097;-47
2021/07/26 01:38:51;;;;;;;55.10;45.13;;;;;;;19.00;100.00;100256.19;3553572;40;20059;-42
2021/07/26 01:41:24;;;;;;;55.95;43.88;;;;;;;19.02;100.00;100262.22;3554115;40;20057;-44
2021/07/26 01:47:03;;;;;;;51.30;43.25;;;;;;;19.16;100.00;100271.50;3549368;40;20093;-44
2021/07/26 01:49:51;;;;;;;45.30;38.45;;;;;;;19.59;100.00;100264.69;3553783;40;20049;-42
2021/07/26 01:52:19;;;;;;;45.75;40.13;;;;;;;19.72;100.00;100267.97;3553921;40;20112;-46
2021/07/26 01:54:48;;;;;;;44.38;37.97;;;;;;;19.49;100.00;100263.16;3553518;40;20053;-43
2021/07/26 01:57:15;;;;;;;48.40;41.15;;;;;;;19.26;100.00;100250.56;3553481;40;20487;-42
2021/07/26 01:59:42;;;;;;;47.17;40.95;;;;;;;19.18;100.00;100255.06;3553698;40;20120;-42
2021/07/26 02:02:09;;;;;;;53.45;45.60;;;;;;;19.06;100.00;100247.44;3553704;40;20347;-42
2021/07/26 02:04:36;;;;;;;51.63;44.00;;;;;;;19.03;100.00;100257.88;3553789;40;20347;-45
2021/07/26 02:07:06;;;;;;;60.13;45.70;;;;;;;19.05;100.00;100263.91;3553455;40;20556;-42
2021/07/26 02:09:36;;;;;;;53.75;43.03;;;;;;;19.05;100.00;100266.50;3553659;40;20083;-43
2021/07/26 02:12:04;;;;;;;58.70;46.17;;;;;;;18.98;100.00;100268.31;3553557;40;20090;-42
2021/07/26 02:14:31;;;;;;;50.60;42.92;;;;;;;19.11;100.00;100270.75;3553684;40;20081;-42
2021/07/26 02:16:57;;;;;;;54.65;45.35;;;;;;;18.97;100.00;100269.22;3553661;40;20074;-42
2021/07/26 02:19:25;;;;;;;59.03;48.15;;;;;;;18.92;100.00;100263.25;3553598;40;20419;-42
2021/07/26 02:21:52;;;;;;;59.10;47.88;;;;;;;18.90;100.00;100262.38;3554126;40;20093;-43
2021/07/26 02:24:19;;;;;;;58.60;48.63;;;;;;;18.88;100.00;100263.31;3553808;40;20052;-42
2021/07/26 02:26:46;;;;;;;58.55;47.80;;;;;;;18.84;100.00;100262.50;3553626;40;20738;-43
2021/07/26 02:29:13;;;;;;;66.95;52.08;;;;;;;18.81;100.00;100262.53;3553871;40;20054;-42
2021/07/26 02:31:40;;;;;;;59.80;48.75;;;;;;;18.86;100.00;100265.06;3554007;40;20336;-42
2021/07/26 02:34:07;;;;;;;59.67;46.72;;;;;;;18.88;100.00;100261.56;3553052;40;20048;-42
2021/07/26 02:36:34;;;;;;;61.13;47.25;;;;;;;18.88;100.00;100258.13;3547179;40;20034;-42
2021/07/26 02:39:01;;;;;;;62.80;49.80;;;;;;;18.75;100.00;100260.88;3553205;40;20118;-45
2021/07/26 02:41:28;;;;;;;65.85;51.45;;;;;;;18.72;100.00;100257.47;3553343;40;20056;-45
2021/07/26 02:43:55;;;;;;;66.00;50.88;;;;;;;18.72;100.00;100253.19;3553537;40;20064;-42
2021/07/26 02:46:22;;;;;;;60.05;49.47;;;;;;;18.71;100.00;100245.41;3553197;40;20090;-43
2021/07/26 02:48:50;;;;;;;62.72;50.47;;;;;;;18.67;100.00;100244.53;3553403;40;20090;-42
2021/07/26 02:51:16;;;;;;;69.72;51.88;;;;;;;18.61;100.00;100239.44;3553183;40;20057;-42
2021/07/26 02:53:43;;;;;;;64.13;50.97;;;;;;;18.65;100.00;100229.91;3553700;40;20101;-43
2021/07/26 02:56:11;;;;;;;67.47;52.33;;;;;;;18.58;100.00;100232.59;3554740;40;20060;-43
2021/07/26 02:58:38;;;;;;;67.32;50.58;;;;;;;18.53;100.00;100230.91;3554792;40;20057;-44
2021/07/26 03:01:09;;;;;;;60.35;48.97;;;;;;;18.53;100.00;100226.63;3555044;40;20105;-46
2021/07/26 03:03:38;;;;;;;62.72;48.33;;;;;;;18.50;100.00;100224.06;3561434;40;20054;-49
2021/07/26 03:06:12;;;;;;;57.53;48.05;;;;;;;18.51;100.00;100228.34;3560569;40;20115;-43
2021/07/26 03:08:39;;;;;;;61.80;49.83;;;;;;;18.49;100.00;100237.06;3555128;40;20082;-43
2021/07/26 03:11:10;;;;;;;65.18;50.75;;;;;;;18.50;100.00;100237.03;3554904;40;20089;-42
2021/07/26 03:13:40;;;;;;;62.13;50.58;;;;;;;18.53;100.00;100236.09;3555164;40;20089;-46
2021/07/26 03:16:09;;;;;;;63.80;50.63;;;;;;;18.54;100.00;100243.88;3554892;40;20053;-44
2021/07/26 03:18:37;;;;;;;56.03;46.38;;;;;;;18.69;100.00;100241.97;3554931;40;20054;-42
2021/07/26 03:21:04;;;;;;;60.10;49.60;;;;;;;18.63;100.00;100247.22;3554719;40;20058;-43
2021/07/26 03:23:32;;;;;;;53.30;45.17;;;;;;;18.72;100.00;100245.38;3554698;40;20347;-42
2021/07/26 03:25:59;;;;;;;57.45;47.60;;;;;;;18.61;100.00;100255.00;3554830;40;20054;-44
2021/07/26 03:28:26;;;;;;;54.38;44.10;;;;;;;18.80;100.00;100255.63;3550817;40;20073;-46
2021/07/26 03:30:53;;;;;;;58.38;47.30;;;;;;;18.57;100.00;100259.38;3554668;40;20078;-44
2021/07/26 03:33:20;;;;;;;61.22;50.97;;;;;;;18.49;100.00;100265.59;3554620;40;20093;-42
2021/07/26 03:35:47;;;;;;;65.90;52.38;;;;;;;18.49;100.00;100260.41;3554885;40;20397;-43
2021/07/26 03:38:14;;;;;;;69.10;54.53;;;;;;;18.44;100.00;100272.53;3554146;40;20086;-46
2021/07/26 03:40:41;;;;;;;59.85;48.13;;;;;;;18.54;100.00;100272.41;3555007;40;20350;-43
2021/07/26 03:43:08;;;;;;;54.03;46.47;;;;;;;18.57;100.00;100263.72;3554425;40;20050;-45
2021/07/26 03:45:35;;;;;;;53.30;45.92;;;;;;;18.73;100.00;100267.84;3554585;40;20105;-44
2021/07/26 03:48:03;;;;;;;49.00;43.25;;;;;;;18.79;100.00;100259.13;3553152;40;20081;-42
2021/07/26 03:50:59;;;;;;;49.28;42.00;;;;;;;18.94;100.00;100266.66;3553850;40;20054;-42
2021/07/26 03:53:36;;;;;;;51.60;43.67;;;;;;;18.98;100.00;100259.69;3567077;40;20118;-43
2021/07/26 03:56:04;;;;;;;44.95;40.10;;;;;;;18.85;100.00;100260.75;3573175;40;20047;-45
2021/07/26 03:58:35;;;;;;;49.85;43.88;;;;;;;18.74;100.00;100259.19;3573393;40;20033;-42
2021/07/26 04:01:04;;;;;;;50.80;44.72;;;;;;;18.56;100.00;100254.22;3573354;40;20049;-42
2021/07/26 04:03:35;;;;;;;54.50;46.83;;;;;;;18.52;100.00;100247.38;3568679;40;20056;-43
2021/07/26 04:06:14;;;;;;;57.83;46.47;;;;;;;18.47;100.00;100247.44;3587364;23;20162;-44
2021/07/26 04:08:44;;;;;;;59.75;49.17;;;;;;;18.38;100.00;100252.75;3558612;40;20131;-46
2021/07/26 04:11:15;;;;;;;62.65;51.88;;;;;;;18.36;100.00;100256.25;3562936;40;20082;-45
2021/07/26 04:13:46;;;;;;;58.58;49.78;;;;;;;18.62;100.00;100258.47;3562717;40;20120;-45
2021/07/26 04:16:13;;;;;;;67.65;54.25;;;;;;;18.80;100.00;100259.09;3560700;40;20061;-43
2021/07/26 04:18:42;;;;;;;65.57;55.20;;;;;;;19.08;100.00;100271.63;3562684;40;20038;-44
2021/07/26 04:21:09;;;;;;;67.82;54.53;;;;;;;18.85;100.00;100259.00;3562737;40;20110;-44
2021/07/26 04:23:37;;;;;;;63.47;51.85;;;;;;;18.95;100.00;100257.13;3563282;40;20061;-43
2021/07/26 04:26:06;;;;;;;62.33;50.65;;;;;;;19.31;100.00;100271.25;3562680;40;20057;-44
2021/07/26 04:28:33;;;;;;;59.05;49.38;;;;;;;19.06;100.00;100263.03;3563314;40;20509;-43
2021/07/26 04:31:00;;;;;;;63.85;54.58;;;;;;;18.89;100.00;100255.50;3563015;40;20037;-43
2021/07/26 04:33:27;;;;;;;67.43;55.03;;;;;;;18.86;100.00;100255.56;3559909;40;20041;-44
2021/07/26 04:35:54;;;;;;;61.63;53.70;;;;;;;18.99;100.00;100246.69;3563313;40;20076;-42
2021/07/26 04:38:24;;;;;;;62.85;52.92;;;;;;;18.82;100.00;100246.97;3562509;40;20446;-45
2021/07/26 04:40:52;;;;;;;65.72;53.67;;;;;;;18.86;100.00;100245.19;3563389;40;20049;-43
2021/07/26 04:43:19;;;;;;;66.53;54.63;;;;;;;18.88;100.00;100246.00;3563039;40;20103;-43
2021/07/26 04:45:55;;;;;;;66.38;54.20;;;;;;;18.98;100.00;100255.34;3562987;40;20049;-44
2021/07/26 04:48:23;;;;;;;;;;;;;;;19.46;100.00;100263.22;3563471;40;20446;-43
2021/07/26 04:50:51;;;;;;;59.75;49.67;;;;;;;19.73;100.00;100279.19;3563425;40;19939;-44
2021/07/26 04:53:18;;;;;;;59.08;50.22;;;;;;;19.34;100.00;100272.06;3562630;40;20049;-47
2021/07/26 04:55:47;;;;;;;51.45;45.88;;;;;;;19.80;100.00;100271.28;3563251;40;20096;-46
2021/07/26 04:58:17;;;;;;;53.28;47.20;;;;;;;20.25;100.00;100276.47;3562847;40;20053;-45
2021/07/26 05:00:45;;;;;;;48.63;43.42;;;;;;;20.25;100.00;100281.66;3563224;40;20089;-44
2021/07/26 05:03:13;;;;;;;49.63;43.22;;;;;;;20.29;100.00;100291.13;3563061;40;20670;-44
2021/07/26 05:05:40;;;;;;;47.88;41.60;;;;;;;20.29;100.00;100290.22;3563406;40;20037;-43
2021/07/26 05:08:10;;;;;;;47.72;41.92;;;;;;;20.30;100.00;100289.38;3562938;40;20422;-43
2021/07/26 05:10:39;;;;;;;48.42;43.22;;;;;;;19.91;100.00;100285.81;3562867;40;20050;-43
2021/07/26 05:13:09;;;;;;;51.42;43.03;;;;;;;19.83;100.00;100271.22;3561651;40;20060;-44
2021/07/26 05:15:39;;;;;;;52.38;42.03;;;;;;;19.96;100.00;100270.97;3563358;40;20057;-45
2021/07/26 05:18:08;;;;;;;48.30;42.90;;;;;;;19.92;100.00;100266.72;3562556;40;20049;-45
2021/07/26 05:20:36;;;;;;;48.63;43.33;;;;;;;20.07;100.00;100256.03;3554803;40;20057;-42
2021/07/26 05:23:08;;;;;;;48.95;40.80;;;;;;;20.19;100.00;100255.75;3562665;40;20093;-42
2021/07/26 05:25:36;;;;;;;47.47;41.80;;;;;;;20.03;100.00;100256.97;3563036;40;20089;-43
2021/07/26 05:28:03;;;;;;;52.30;43.85;;;;;;;19.97;100.00;100255.38;3562870;40;20434;-45
2021/07/26 05:30:30;;;;;;;47.75;42.53;;;;;;;20.28;100.00;100255.56;3563451;40;20057;-44
2021/07/26 05:32:57;;;;;;;49.90;42.30;;;;;;;20.55;100.00;100253.28;3563505;40;20085;-43
2021/07/26 05:35:24;;;;;;;43.33;38.65;;;;;;;20.86;100.00;100263.88;3562983;40;20057;-44
2021/07/26 05:37:51;;;;;;;42.53;37.10;;;;;;;21.16;100.00;100269.22;3563211;40;20082;-46
2021/07/26 05:40:18;;;;;;;43.22;38.28;;;;;;;21.17;100.00;100269.19;3559047;40;20057;-43
2021/07/26 05:42:45;;;;;;;44.78;39.10;;;;;;;20.73;100.00;100267.63;3562929;40;20088;-43
2021/07/26 05:45:12;;;;;;;47.30;39.72;;;;;;;20.80;100.00;100271.84;3562548;40;20085;-44
2021/07/26 05:47:50;;;;;;;45.78;40.47;;;;;;;20.63;100.00;100266.16;3562565;40;20105;-46
2021/07/26 05:50:18;;;;;;;45.83;39.72;;;;;;;20.76;100.00;100271.03;3562274;40;20110;-44
2021/07/26 05:52:46;;;;;;;45.33;40.38;;;;;;;20.77;100.00;100272.75;3562504;40;20569;-43
2021/07/26 05:55:14;;;;;;;46.67;40.75;;;;;;;21.10;100.00;100276.28;3562303;40;20062;-45
2021/07/26 05:57:51;;;;;;;46.47;39.40;;;;;;;21.01;100.00;100273.91;3562857;40;20143;-45
2021/07/26 06:00:24;;;;;;;47.05;42.15;;;;;;;20.92;100.00;100268.91;3561928;40;20061;-43
2021/07/26 06:02:51;;;;;;;46.00;40.92;;;;;;;21.07;100.00;100265.94;3562981;40;20052;-43
2021/07/26 06:05:18;;;;;;;44.15;38.17;;;;;;;21.53;100.00;100270.03;3562374;40;20097;-43
2021/07/26 06:07:45;;;;;;;44.50;38.92;;;;;;;21.73;100.00;100266.91;3562604;40;20869;-44
2021/07/26 06:10:12;;;;;;;39.10;35.17;;;;;;;22.17;100.00;100264.81;3562501;40;20061;-45
2021/07/26 06:12:39;;;;;;;39.53;34.75;;;;;;;21.93;100.00;100260.28;3562804;40;20085;-43
2021/07/26 06:15:07;;;;;;;40.90;36.60;;;;;;;21.71;100.00;100266.06;3562225;40;20093;-43
2021/07/26 06:17:34;;;;;;;41.85;34.22;;;;;;;22.57;100.00;100261.91;3562908;40;20076;-43
2021/07/26 06:20:03;;;;;;;40.22;35.75;;;;;;;22.40;100.00;100271.13;3562522;40;20101;-45
2021/07/26 06:22:30;;;;;;;38.58;34.50;;;;;;;22.47;100.00;100272.66;3562920;40;20085;-43
2021/07/26 06:24:57;;;;;;;34.67;31.00;;;;;;;22.71;100.00;100268.44;3562636;40;20053;-42
2021/07/26 06:27:24;;;;;;;36.78;32.83;;;;;;;23.05;100.00;100279.56;3562602;40;20077;-43
2021/07/26 06:29:52;;;;;;;34.58;30.85;;;;;;;23.41;100.00;100278.41;3562976;40;20093;-43
2021/07/26 06:32:20;;;;;;;34.90;31.17;;;;;;;23.17;100.00;100287.91;3563709;40;20082;-43
2021/07/26 06:34:47;;;;;;;35.55;31.83;;;;;;;23.04;100.00;100275.25;3564133;40;20150;-44
2021/07/26 06:37:14;;;;;;;34.33;29.92;;;;;;;23.19;100.00;100278.25;3563683;40;20097;-42
2021/07/26 06:39:41;;;;;;;36.22;32.08;;;;;;;22.71;100.00;100271.06;3564689;40;20096;-43
2021/07/26 06:42:08;;;;;;;34.80;31.05;;;;;;;22.38;100.00;100281.63;3563360;40;20094;-43
2021/07/26 06:44:37;;;;;;;36.38;31.92;;;;;;;22.20;100.00;100276.94;3564166;40;20489;-43
2021/07/26 06:47:04;;;;;;;35.65;31.75;;;;;;;22.22;100.00;100278.59;3563896;40;20105;-43
2021/07/26 06:49:31;;;;;;;37.20;33.22;;;;;;;22.22;100.00;100285.56;3564308;40;20042;-44
2021/07/26 06:51:58;;;;;;;35.80;32.08;;;;;;;22.81;100.00;100294.22;3563711;40;20049;-46
2021/07/26 06:54:25;;;;;;;36.80;32.88;;;;;;;22.83;100.00;100300.25;3564001;40;20095;-43
2021/07/26 06:56:52;;;;;;;37.88;34.05;;;;;;;22.47;100.00;100294.41;3564130;40;20084;-43
2021/07/26 06:59:19;;;;;;;39.05;34.85;;;;;;;22.38;100.00;100294.66;3563516;40;20077;-44
2021/07/26 07:01:47;;;;;;;38.15;34.15;;;;;;;22.59;100.00;100298.38;3563453;40;20046;-44
2021/07/26 07:04:15;;;;;;;35.60;31.92;;;;;;;22.72;100.00;100296.25;3563441;40;20350;-43
2021/07/26 07:06:42;;;;;;;38.55;32.60;;;;;;;23.03;100.00;100301.41;3564833;40;20143;-43
2021/07/26 07:09:09;;;;;;;40.28;34.33;;;;;;;23.06;100.00;100299.56;3564670;40;20910;-45
2021/07/26 07:11:37;;;;;;;36.90;33.00;;;;;;;23.67;100.00;100296.69;3564569;40;20049;-45
2021/07/26 07:14:04;;;;;;;37.17;32.92;;;;;;;23.81;100.00;100304.06;3563744;40;21932;-43
2021/07/26 07:16:39;;;;;;;37.88;33.90;;;;;;;23.18;100.00;100298.28;3563975;40;20419;-46
2021/07/26 07:19:07;;;;;;;35.97;32.22;;;;;;;23.57;100.00;100303.97;3563458;40;20080;-43
2021/07/26 07:21:35;;;;;;;35.92;32.22;;;;;;;23.70;100.00;100295.72;3563968;40;20069;-43
2021/07/26 07:24:03;;;;;;;34.05;29.30;;;;;;;24.33;100.00;100300.38;3563301;40;20057;-43
2021/07/26 07:26:31;;;;;;;39.35;31.38;;;;;;;24.13;100.00;100302.91;3563772;40;20483;-43
2021/07/26 07:28:59;;;;;;;37.03;33.22;;;;;;;23.60;100.00;100313.44;3563538;40;20064;-45
2021/07/26 07:31:27;;;;;;;35.47;31.73;;;;;;;24.02;100.00;100312.88;3559844;40;20081;-43
2021/07/26 07:33:56;;;;;;;35.78;30.33;;;;;;;24.28;96.89;100311.94;3563854;40;20053;-43
2021/07/26 07:36:27;;;;;;;33.30;29.80;;;;;;;24.27;98.56;100311.09;3563418;40;20045;-43
2021/07/26 07:38:56;;;;;;;35.42;30.60;;;;;;;24.51;95.83;100309.34;3563589;40;20143;-43
2021/07/26 07:41:26;;;;;;;34.63;30.98;;;;;;;23.91;100.00;100307.19;3563287;40;20081;-43
2021/07/26 07:43:54;;;;;;;34.58;29.67;;;;;;;24.08;100.00;100307.41;3564069;40;20060;-43
2021/07/26 07:46:21;;;;;;;32.63;29.15;;;;;;;24.34;95.98;100307.31;3563671;40;20037;-43
2021/07/26 07:48:49;;;;;;;31.48;28.27;;;;;;;24.21;94.42;100315.69;3563742;40;20041;-44
2021/07/26 07:51:18;;;;;;;33.55;29.55;;;;;;;24.20;97.38;100317.44;3563533;40;20098;-44
2021/07/26 07:53:51;;;;;;;33.05;29.55;;;;;;;24.92;92.46;100324.38;3563952;40;20061;-45
2021/07/26 07:56:18;;;;;;;33.22;29.65;;;;;;;25.23;90.85;100314.38;3563907;40;20780;-44
2021/07/26 07:59:10;;;;;;;32.42;29.17;;;;;;;24.77;95.18;100323.19;3560402;40;20135;-44
2021/07/26 08:01:53;;;;;;;32.30;29.00;;;;;;;24.92;96.17;100327.84;3558552;40;20046;-43
2021/07/26 08:04:25;;;;;;;31.38;28.10;;;;;;;25.86;88.07;100322.25;3563255;40;20427;-43
2021/07/26 08:06:53;;;;;;;34.60;31.08;;;;;;;25.42;89.49;100324.94;3563724;40;20049;-42
2021/07/26 08:09:20;;;;;;;32.25;28.77;;;;;;;25.49;87.95;100328.19;3563191;40;20056;-43
2021/07/26 08:11:50;;;;;;;32.90;28.02;;;;;;;26.00;88.20;100340.88;3563891;40;20049;-43
2021/07/26 08:14:17;;;;;;;29.52;26.55;;;;;;;26.61;81.43;100337.28;3563158;40;20060;-43
2021/07/26 08:16:44;;;;;;;29.48;26.33;;;;;;;26.63;81.54;100335.44;3563769;40;20091;-45
2021/07/26 08:19:12;;;;;;;29.27;26.27;;;;;;;25.93;83.75;100342.06;3562344;40;20051;-44
2021/07/26 08:21:39;;;;;;;28.92;25.02;;;;;;;26.91;79.13;100341.09;3563219;40;20112;-43
2021/07/26 08:24:06;;;;;;;29.58;26.48;;;;;;;26.97;77.71;100339.09;3563258;40;20086;-42
2021/07/26 08:26:33;;;;;;;28.48;25.40;;;;;;;26.98;77.88;100336.38;3563486;40;20048;-43
2021/07/26 08:29:08;;;;;;;27.15;23.88;;;;;;;26.61;82.13;100322.38;3562996;40;20512;-44
2021/07/26 08:31:36;;;;;;;26.40;23.67;;;;;;;26.93;79.40;100327.88;3563535;40;20131;-43
2021/07/26 08:34:05;;;;;;;26.70;23.83;;;;;;;26.71;81.92;100322.78;3563151;40;20053;-43
2021/07/26 08:36:33;;;;;;;26.83;23.67;;;;;;;26.34;84.85;100324.47;3563369;40;20045;-42
2021/07/26 08:39:05;;;;;;;25.05;22.38;;;;;;;26.82;79.12;100332.81;3563202;40;20053;-44
2021/07/26 08:41:33;;;;;;;24.65;22.08;;;;;;;26.86;79.33;100337.84;3563678;40;20041;-45
2021/07/26 08:44:00;;;;;;;24.00;21.55;;;;;;;27.03;80.96;100344.91;3563380;40;20138;-42
2021/07/26 08:46:30;;;;;;;24.05;21.65;;;;;;;26.53;79.90;100337.66;3559897;40;20081;-46
2021/07/26 08:48:57;;;;;;;24.38;21.98;;;;;;;26.82;80.02;100345.94;3563297;40;20060;-43
2021/07/26 08:51:26;;;;;;;20.45;17.35;;;;;;;27.55;70.25;100347.66;3563094;40;20034;-42
2021/07/26 08:53:55;;;;;;;19.85;17.70;;;;;;;27.03;78.19;100344.06;3563159;40;20057;-42
2021/07/26 08:56:23;;;;;;;21.33;19.23;;;;;;;26.89;77.55;100342.94;3563195;40;20037;-44
2021/07/26 08:58:50;;;;;;;24.02;20.42;;;;;;;27.30;75.65;100341.91;3563303;40;20134;-46
2021/07/26 09:01:18;;;;;;;22.85;20.65;;;;;;;27.62;73.44;100348.19;3563069;40;20050;-45
2021/07/26 09:03:51;;;;;;;26.30;23.58;;;;;;;27.67;73.42;100341.75;3563012;40;20045;-43
2021/07/26 09:06:19;;;;;;;30.10;21.40;;;;;;;27.86;70.44;100348.75;3562906;40;20331;-42
2021/07/26 09:08:46;;;;;;;20.63;18.52;;;;;;;27.35;70.80;100340.72;3563604;40;20049;-43
2021/07/26 09:11:13;;;;;;;20.48;18.38;;;;;;;27.54;68.55;100342.44;3563503;40;20093;-42
2021/07/26 09:13:44;;;;;;;18.50;16.65;;;;;;;28.00;67.40;100348.03;3563453;40;20684;-44
2021/07/26 09:16:22;;;;;;;20.08;18.02;;;;;;;26.99;77.16;100343.34;3563076;40;20178;-43
2021/07/26 09:19:11;;;;;;;21.17;19.08;;;;;;;27.77;68.23;100339.53;3563385;40;20061;-43
2021/07/26 09:21:52;;;;;;;22.02;19.77;;;;;;;27.18;76.81;100346.00;3563532;40;20054;-44
2021/07/26 09:24:27;;;;;;;23.90;18.77;;;;;;;28.46;67.60;100346.47;3562767;40;20053;-45
2021/07/26 09:27:26;;;;;;;23.83;20.02;;;;;;;28.22;70.68;100347.75;3563143;40;20052;-46
2021/07/26 09:30:11;;;;;;;;;;;;;;;27.54;72.28;100343.28;3554409;40;20068;-44
2021/07/26 09:32:41;;;;;;;22.50;20.33;;;;;;;27.65;73.02;100341.00;3558443;40;20424;-47
2021/07/26 09:35:09;;;;;;;21.75;19.42;;;;;;;27.85;72.63;100344.41;3562845;40;20053;-43
2021/07/26 09:37:39;;;;;;;20.05;18.17;;;;;;;28.13;71.11;100342.03;3563515;40;20081;-45
2021/07/26 09:40:21;;;;;;;21.02;18.92;;;;;;;28.54;68.55;100340.78;3562864;40;20140;-43
2021/07/26 09:42:49;;;;;;;22.88;19.52;;;;;;;28.86;67.38;100344.28;3562823;40;20077;-43
2021/07/26 09:45:20;;;;;;;21.08;17.48;;;;;;;28.22;67.40;100338.06;3561896;40;20320;-45
2021/07/26 09:48:14;;;;;;;18.98;17.02;;;;;;;28.67;66.11;100342.66;3563359;40;20428;-48
2021/07/26 09:50:44;;;;;;;19.23;17.25;;;;;;;28.69;68.74;100329.38;3558777;40;20049;-46
2021/07/26 09:53:13;;;;;;;18.48;16.30;;;;;;;28.29;63.22;100333.34;3562764;40;20050;-43
2021/07/26 09:55:43;;;;;;;17.85;15.82;;;;;;;28.54;65.15;100338.16;3558473;40;20629;-45
2021/07/26 09:58:12;;;;;;;16.63;14.93;;;;;;;28.97;60.46;100328.72;3562673;40;20054;-47
2021/07/26 10:00:40;;;;;;;16.15;14.55;;;;;;;29.22;62.55;100330.81;3563048;40;20053;-44
2021/07/26 10:03:11;;;;;;;15.68;14.18;;;;;;;30.28;57.25;100335.97;3562482;40;20049;-43
2021/07/26 10:05:39;;;;;;;16.88;14.70;;;;;;;29.36;60.57;100330.88;3590592;23;20046;-49
2021/07/26 10:08:12;;;;;;;16.42;14.57;;;;;;;29.35;62.28;100333.56;3554030;40;20073;-49
2021/07/26 10:10:42;;;;;;;16.38;14.82;;;;;;;31.03;56.70;100346.22;3555795;40;20324;-47
2021/07/26 10:13:17;;;;;;;16.35;13.15;;;;;;;31.40;52.14;100342.03;3555406;40;20079;-45
2021/07/26 10:15:49;;;;;;;14.73;13.23;;;;;;;32.80;48.12;100349.09;3555461;40;20049;-44
2021/07/26 10:18:18;;;;;;;15.57;12.02;;;;;;;34.79;41.93;100342.66;3555286;40;20356;-45
2021/07/26 10:20:58;;;;;;;15.48;13.85;;;;;;;34.17;46.39;100343.22;3556434;40;20392;-45
2021/07/26 10:23:38;;;;;;;13.65;12.25;;;;;;;36.71;35.63;100345.88;3556260;40;20410;-48
2021/07/26 10:26:08;;;;;;;12.98;11.88;;;;;;;37.18;34.00;100357.63;3556403;40;20058;-47
2021/07/26 10:28:43;;;;;;;13.38;12.10;;;;;;;37.54;35.18;100363.25;3556129;40;20065;-45
2021/07/26 10:31:28;;;;;;;14.82;13.20;;;;;;;36.74;35.81;100350.94;3555888;40;20094;-47
2021/07/26 10:34:02;;;;;;;;;;;;;;;35.06;39.01;100339.59;3556283;40;20090;-45
2021/07/26 10:36:40;;;;;;;14.60;13.18;;;;;;;36.85;37.98;100345.47;3548749;40;19949;-45
2021/07/26 10:39:08;;;;;;;14.35;12.93;;;;;;;37.24;36.31;100344.69;3554828;40;20061;-46
2021/07/26 10:41:45;;;;;;;14.05;12.63;;;;;;;38.61;34.44;100345.03;3555578;40;20045;-45
2021/07/26 10:44:18;;;;;;;14.30;12.63;;;;;;;38.76;33.79;100345.38;3554049;40;20089;-45
2021/07/26 10:46:51;;;;;;;13.48;12.18;;;;;;;40.91;30.61;100348.25;3556206;40;20053;-48
2021/07/26 10:49:44;;;;;;;14.30;13.00;;;;;;;39.01;32.36;100342.91;3555158;40;20051;-46
2021/07/26 10:52:23;;;;;;;13.93;12.77;;;;;;;38.66;32.13;100341.88;3555560;40;20418;-45
2021/07/26 10:54:55;;;;;;;14.60;13.10;;;;;;;39.79;31.25;100345.75;3555945;40;20388;-45
2021/07/26 10:57:43;;;;;;;15.35;13.90;;;;;;;35.95;37.13;100318.78;3551867;40;20059;-45
2021/07/26 11:00:20;;;;;;;14.45;13.15;;;;;;;38.32;34.33;100325.59;3555331;40;20057;-45
2021/07/26 11:02:48;;;;;;;;;;;;;;;39.07;32.61;100332.44;3556407;40;20049;-46
2021/07/26 11:05:28;;;;;;;14.18;12.75;;;;;;;37.60;33.23;100317.25;3554759;40;19934;-46
2021/07/26 11:08:18;;;;;;;13.10;11.93;;;;;;;38.97;35.32;100316.47;3553625;40;20142;-45
2021/07/26 11:11:02;;;;;;;12.68;11.35;;;;;;;38.80;32.06;100322.66;3555747;40;20041;-47
2021/07/26 11:14:03;;;;;;;13.68;12.38;;;;;;;39.05;30.76;100320.19;3547518;40;20304;-47
2021/07/26 11:16:56;;;;;;;13.80;12.50;;;;;;;40.93;28.13;100322.91;3546398;40;20135;-44
2021/07/26 11:19:54;;;;;;;13.30;12.25;;;;;;;39.79;31.54;100322.47;3549354;40;20080;-47
2021/07/26 11:22:25;;;;;;;11.77;10.63;;;;;;;38.00;33.51;100320.69;3555095;40;20045;-45